Time;durP1;ratioP1;P1;durP2;ratioP2;P2;SDS_P1;SDS_P2;PMS_P1;PMS_P2;Temp;Humidity;BMP_temperature;BMP_pressure;BME280_temperature;BME280_humidity;BME280_pressure;Samples;Min_cycle;Max_cycle;Signal;HPM_P1;HPM_P2
2024/01/12 00:01:54;;;;;;;1999.90;999.90;;;;;;;;;;5067365;28;20711;-65
2024/01/12 00:04:21;;;;;;;1999.90;999.90;;;;;;;;;;5065331;28;20201;-66
2024/01/12 00:06:49;;;;;;;1999.90;999.90;;;;;;;;;;5067287;28;20209;-66
2024/01/12 00:09:16;;;;;;;1999.90;999.90;;;;;;;;;;5065081;28;20202;-66
2024/01/12 00:11:46;;;;;;;1999.90;999.90;;;;;;;;;;5066615;28;20225;-66
2024/01/12 00:14:14;;;;;;;1999.90;999.90;;;;;;;;;;5053939;28;20652;-66
2024/01/12 00:16:44;;;;;;;1999.90;999.90;;;;;;;;;;5067173;28;20280;-67
2024/01/12 00:19:12;;;;;;;1999.90;999.90;;;;;;;;;;5067458;28;20285;-66
2024/01/12 00:21:39;;;;;;;1999.90;999.90;;;;;;;;;;5065503;28;20234;-66
2024/01/12 00:24:06;;;;;;;1999.90;999.90;;;;;;;;;;5066311;28;20656;-66
2024/01/12 00:26:34;;;;;;;1999.90;999.90;;;;;;;;;;5063636;28;20708;-67
2024/01/12 00:29:03;;;;;;;1999.90;999.90;;;;;;;;;;5066430;28;20194;-66
2024/01/12 00:31:30;;;;;;;1999.90;999.90;;;;;;;;;;5065303;28;20217;-67
2024/01/12 00:33:57;;;;;;;1999.90;999.90;;;;;;;;;;5067541;28;20195;-66
2024/01/12 00:36:24;;;;;;;1999.90;999.90;;;;;;;;;;5066927;28;20210;-66
2024/01/12 00:38:52;;;;;;;1999.90;999.90;;;;;;;;;;5065812;28;20954;-66
2024/01/12 00:41:19;;;;;;;1999.90;999.90;;;;;;;;;;5066460;28;20213;-67
2024/01/12 00:43:46;;;;;;;1999.90;999.90;;;;;;;;;;5066469;28;20202;-66
2024/01/12 00:46:15;;;;;;;1999.90;999.90;;;;;;;;;;5067311;28;20206;-65
2024/01/12 00:48:43;;;;;;;1999.90;999.90;;;;;;;;;;5065283;28;20203;-66
2024/01/12 00:51:11;;;;;;;1999.90;999.90;;;;;;;;;;5066284;28;20700;-66
2024/01/12 00:53:39;;;;;;;1999.90;999.90;;;;;;;;;;5064363;28;20264;-66
2024/01/12 00:56:06;;;;;;;1999.90;999.90;;;;;;;;;;5065898;28;20909;-65
2024/01/12 00:58:35;;;;;;;1999.90;999.90;;;;;;;;;;5066928;28;20230;-65
2024/01/12 01:01:03;;;;;;;1999.90;999.90;;;;;;;;;;5065243;28;20300;-66
2024/01/12 01:03:32;;;;;;;1999.90;999.90;;;;;;;;;;5065566;28;20198;-66
2024/01/12 01:05:59;;;;;;;1999.90;999.90;;;;;;;;;;5064165;28;20209;-66
2024/01/12 01:08:26;;;;;;;1999.90;999.90;;;;;;;;;;5066269;28;20202;-65
2024/01/12 01:10:54;;;;;;;1999.90;999.90;;;;;;;;;;5064593;28;20197;-65
2024/01/12 01:13:21;;;;;;;1999.90;999.90;;;;;;;;;;5066023;28;20690;-66
2024/01/12 01:15:49;;;;;;;1999.90;999.90;;;;;;;;;;5053758;28;20653;-65
2024/01/12 01:18:17;;;;;;;1999.90;999.90;;;;;;;;;;5065048;28;20680;-66
2024/01/12 01:20:46;;;;;;;1999.90;999.90;;;;;;;;;;5051163;28;20268;-66
2024/01/12 01:23:13;;;;;;;1999.90;999.90;;;;;;;;;;5064503;28;20201;-66
2024/01/12 01:25:41;;;;;;;1999.90;999.90;;;;;;;;;;5066299;28;20210;-66
2024/01/12 01:28:08;;;;;;;1999.90;999.90;;;;;;;;;;5064975;28;20676;-65
2024/01/12 01:30:35;;;;;;;1999.90;999.90;;;;;;;;;;5065775;28;20571;-65
2024/01/12 01:33:03;;;;;;;1999.90;999.90;;;;;;;;;;5065454;28;20696;-65
2024/01/12 01:35:30;;;;;;;1999.90;999.90;;;;;;;;;;5065464;28;20202;-66
2024/01/12 01:37:59;;;;;;;1999.90;999.90;;;;;;;;;;5046201;28;20673;-66
2024/01/12 01:40:26;;;;;;;1999.90;999.90;;;;;;;;;;5064523;28;20208;-66
2024/01/12 01:42:53;;;;;;;1999.90;999.90;;;;;;;;;;5065453;28;20264;-66
2024/01/12 01:45:21;;;;;;;1999.90;999.90;;;;;;;;;;5065130;28;20208;-66
2024/01/12 01:47:49;;;;;;;1999.90;999.90;;;;;;;;;;5065167;28;20652;-66
2024/01/12 01:50:17;;;;;;;1999.90;999.90;;;;;;;;;;5065187;28;20206;-65
2024/01/12 01:52:44;;;;;;;1999.90;999.90;;;;;;;;;;5064512;28;20637;-65
2024/01/12 01:55:16;;;;;;;1999.90;999.90;;;;;;;;;;5064711;28;20209;-67
2024/01/12 01:57:43;;;;;;;1999.90;999.90;;;;;;;;;;5064683;28;20243;-66
2024/01/12 02:00:12;;;;;;;1999.90;999.90;;;;;;;;;;5065874;28;20209;-66
2024/01/12 02:02:40;;;;;;;1999.90;999.90;;;;;;;;;;5064526;28;20548;-65
2024/01/12 02:05:08;;;;;;;1999.90;999.90;;;;;;;;;;5065383;28;20202;-66
2024/01/12 02:07:38;;;;;;;1999.90;999.90;;;;;;;;;;5062093;28;20206;-65
2024/01/12 02:10:06;;;;;;;1999.90;999.90;;;;;;;;;;5054224;28;20208;-65
2024/01/12 02:12:35;;;;;;;1999.90;999.90;;;;;;;;;;5055796;28;20203;-65
2024/01/12 02:15:02;;;;;;;1999.90;999.90;;;;;;;;;;5056386;28;20207;-66
2024/01/12 02:17:30;;;;;;;1999.90;999.90;;;;;;;;;;5056907;28;20204;-66
2024/01/12 02:20:00;;;;;;;1999.90;999.90;;;;;;;;;;5054594;28;20204;-66
2024/01/12 02:22:30;;;;;;;1999.90;999.90;;;;;;;;;;5056120;28;20240;-66
2024/01/12 02:24:59;;;;;;;1999.90;999.90;;;;;;;;;;5057307;28;20190;-65
2024/01/12 02:27:26;;;;;;;1999.90;999.90;;;;;;;;;;5058319;28;20197;-65
2024/01/12 02:29:54;;;;;;;1999.90;999.90;;;;;;;;;;5056431;28;20197;-66
2024/01/12 02:32:22;;;;;;;1999.90;999.90;;;;;;;;;;5055917;28;20225;-66
2024/01/12 02:34:49;;;;;;;1999.90;999.90;;;;;;;;;;5056929;28;20190;-65
2024/01/12 02:37:16;;;;;;;1999.90;999.90;;;;;;;;;;5055138;28;20203;-65
2024/01/12 02:39:45;;;;;;;1999.90;999.90;;;;;;;;;;5056841;28;20207;-65
2024/01/12 02:42:12;;;;;;;1999.90;999.90;;;;;;;;;;5057061;28;20201;-65
2024/01/12 02:44:40;;;;;;;1999.90;999.90;;;;;;;;;;5057482;28;20205;-66
2024/01/12 02:47:07;;;;;;;1999.90;999.90;;;;;;;;;;5056650;28;20206;-65
2024/01/12 02:49:35;;;;;;;1999.90;999.90;;;;;;;;;;5058598;28;20201;-66
2024/01/12 02:52:02;;;;;;;1999.90;999.90;;;;;;;;;;5060706;28;20224;-66
2024/01/12 02:54:29;;;;;;;1999.90;999.90;;;;;;;;;;5059992;28;20581;-65
2024/01/12 02:56:58;;;;;;;1999.90;999.90;;;;;;;;;;5058869;28;20196;-66
2024/01/12 02:59:25;;;;;;;1999.90;999.90;;;;;;;;;;5061649;28;20189;-65
2024/01/12 03:01:53;;;;;;;1999.90;999.90;;;;;;;;;;5059106;28;20203;-66
2024/01/12 03:04:20;;;;;;;1999.90;999.90;;;;;;;;;;5059275;28;20294;-65
2024/01/12 03:06:48;;;;;;;1999.90;999.90;;;;;;;;;;5059212;28;20208;-66
2024/01/12 03:09:15;;;;;;;1999.90;999.90;;;;;;;;;;5060472;28;20202;-66
2024/01/12 03:11:44;;;;;;;1999.90;999.90;;;;;;;;;;5058937;28;20221;-66
2024/01/12 03:14:13;;;;;;;1999.90;999.90;;;;;;;;;;5060894;28;20206;-66
2024/01/12 03:16:40;;;;;;;1999.90;999.90;;;;;;;;;;5058774;28;20197;-65
2024/01/12 03:19:07;;;;;;;1999.90;999.90;;;;;;;;;;5058614;28;20659;-66
2024/01/12 03:21:35;;;;;;;1999.90;999.90;;;;;;;;;;5059041;28;20225;-66
2024/01/12 03:24:02;;;;;;;1999.90;999.90;;;;;;;;;;5056569;28;20198;-65
2024/01/12 03:26:31;;;;;;;1999.90;999.90;;;;;;;;;;5059675;28;20199;-66
2024/01/12 03:28:59;;;;;;;1999.90;999.90;;;;;;;;;;5058744;28;20558;-65
2024/01/12 03:31:27;;;;;;;1999.90;999.90;;;;;;;;;;5060519;28;20300;-66
2024/01/12 03:33:55;;;;;;;1999.90;999.90;;;;;;;;;;5058687;28;20194;-66
2024/01/12 03:36:23;;;;;;;1999.90;999.90;;;;;;;;;;5057237;28;20391;-65
2024/01/12 03:38:53;;;;;;;1999.90;999.90;;;;;;;;;;5060012;28;20193;-66
2024/01/12 03:41:20;;;;;;;1999.90;999.90;;;;;;;;;;5057534;28;20193;-66
2024/01/12 03:43:47;;;;;;;1999.90;999.90;;;;;;;;;;5060384;28;20656;-66
2024/01/12 03:46:15;;;;;;;1999.90;999.90;;;;;;;;;;5059169;28;20198;-66
2024/01/12 03:48:45;;;;;;;1999.90;999.90;;;;;;;;;;5059656;28;20207;-65
2024/01/12 03:51:12;;;;;;;1999.90;999.90;;;;;;;;;;5058703;28;20233;-67
2024/01/12 03:53:39;;;;;;;1999.90;999.90;;;;;;;;;;5060767;28;20680;-67
2024/01/12 03:56:07;;;;;;;1999.90;999.90;;;;;;;;;;5061743;28;20194;-66
2024/01/12 03:58:34;;;;;;;1999.90;999.90;;;;;;;;;;5061121;28;20633;-67
2024/01/12 04:01:02;;;;;;;1999.90;999.90;;;;;;;;;;5060557;28;20196;-66
2024/01/12 04:03:29;;;;;;;1999.90;999.90;;;;;;;;;;5058658;28;20202;-66
2024/01/12 04:05:59;;;;;;;1999.90;999.90;;;;;;;;;;5060524;28;20680;-66
2024/01/12 04:08:26;;;;;;;1999.90;999.90;;;;;;;;;;5058473;28;20608;-66
2024/01/12 04:10:53;;;;;;;1999.90;999.90;;;;;;;;;;5057065;28;20205;-65
2024/01/12 04:13:21;;;;;;;1999.90;999.90;;;;;;;;;;5060395;28;20249;-65
2024/01/12 04:15:48;;;;;;;1999.90;999.90;;;;;;;;;;5057321;28;20638;-65
2024/01/12 04:18:15;;;;;;;1999.90;999.90;;;;;;;;;;5059678;28;20205;-66
2024/01/12 04:20:43;;;;;;;1999.90;999.90;;;;;;;;;;5057786;28;20229;-66
2024/01/12 04:23:12;;;;;;;1999.90;999.90;;;;;;;;;;5058689;28;20758;-66
2024/01/12 04:25:39;;;;;;;1999.90;999.90;;;;;;;;;;5057999;28;20667;-65
2024/01/12 04:28:07;;;;;;;1999.90;999.90;;;;;;;;;;5059568;28;20227;-66
2024/01/12 04:30:34;;;;;;;1999.90;999.90;;;;;;;;;;5058547;28;20190;-65
2024/01/12 04:33:02;;;;;;;1999.90;999.90;;;;;;;;;;5057952;28;20218;-66
2024/01/12 04:35:29;;;;;;;1999.90;999.90;;;;;;;;;;5056499;28;21032;-65
2024/01/12 04:37:56;;;;;;;1999.90;999.90;;;;;;;;;;5058702;28;20247;-66
2024/01/12 04:40:26;;;;;;;1999.90;999.90;;;;;;;;;;5056386;28;20661;-65
2024/01/12 04:42:53;;;;;;;1999.90;999.90;;;;;;;;;;5055599;28;20795;-65
2024/01/12 04:45:20;;;;;;;1999.90;999.90;;;;;;;;;;5059596;28;20668;-66
2024/01/12 04:47:47;;;;;;;1999.90;999.90;;;;;;;;;;5062299;28;20204;-65
2024/01/12 04:50:15;;;;;;;1999.90;999.90;;;;;;;;;;5061064;28;20640;-65
2024/01/12 04:52:42;;;;;;;1999.90;999.90;;;;;;;;;;5060463;28;20222;-65
2024/01/12 04:55:09;;;;;;;1999.90;999.90;;;;;;;;;;5055733;28;20228;-66
2024/01/12 04:57:38;;;;;;;1999.90;999.90;;;;;;;;;;5058881;28;20191;-66
2024/01/12 05:00:06;;;;;;;1999.90;999.90;;;;;;;;;;5057605;28;20193;-65
2024/01/12 05:02:34;;;;;;;1999.90;999.90;;;;;;;;;;5057897;28;20215;-65
2024/01/12 05:05:03;;;;;;;1999.90;999.90;;;;;;;;;;5057138;28;20236;-65
2024/01/12 05:07:30;;;;;;;1999.90;999.90;;;;;;;;;;5057170;28;20205;-65
2024/01/12 05:09:57;;;;;;;1999.90;999.90;;;;;;;;;;5057633;28;20539;-65
2024/01/12 05:12:25;;;;;;;1999.90;999.90;;;;;;;;;;5058113;28;20214;-66
2024/01/12 05:14:53;;;;;;;1999.90;999.90;;;;;;;;;;5059798;28;20216;-66
2024/01/12 05:17:21;;;;;;;1999.90;999.90;;;;;;;;;;5055585;28;20710;-65
2024/01/12 05:19:48;;;;;;;1999.90;999.90;;;;;;;;;;5058985;28;20202;-66
2024/01/12 05:22:16;;;;;;;1999.90;999.90;;;;;;;;;;5056538;28;20343;-65
2024/01/12 05:24:43;;;;;;;1999.90;999.90;;;;;;;;;;5057272;28;20699;-65
2024/01/12 05:27:10;;;;;;;1999.90;999.90;;;;;;;;;;5056609;28;20204;-65
2024/01/12 05:29:38;;;;;;;1999.90;999.90;;;;;;;;;;5054784;28;20683;-66
2024/01/12 05:32:07;;;;;;;1999.90;999.90;;;;;;;;;;5059975;28;20627;-66
2024/01/12 05:34:34;;;;;;;1999.90;999.90;;;;;;;;;;5057096;28;20191;-65
2024/01/12 05:37:02;;;;;;;1999.90;999.90;;;;;;;;;;5056296;28;20198;-65
2024/01/12 05:39:30;;;;;;;1999.90;999.90;;;;;;;;;;5055485;28;20286;-66
2024/01/12 05:41:57;;;;;;;1999.90;999.90;;;;;;;;;;5057653;28;20199;-65
2024/01/12 05:44:25;;;;;;;1999.90;999.90;;;;;;;;;;5058485;28;20201;-65
2024/01/12 05:46:52;;;;;;;1999.90;999.90;;;;;;;;;;5057961;28;20198;-65
2024/01/12 05:49:21;;;;;;;1999.90;999.90;;;;;;;;;;5055461;28;20202;-65
2024/01/12 05:51:48;;;;;;;1999.90;999.90;;;;;;;;;;5056746;28;20194;-66
2024/01/12 05:54:16;;;;;;;1999.90;999.90;;;;;;;;;;5056496;28;20320;-66
2024/01/12 05:56:43;;;;;;;1999.90;999.90;;;;;;;;;;5053653;28;20206;-65
2024/01/12 05:59:10;;;;;;;1999.90;999.90;;;;;;;;;;5056524;28;20202;-66
2024/01/12 06:01:38;;;;;;;1999.90;999.90;;;;;;;;;;5057661;28;20198;-65
2024/01/12 06:04:06;;;;;;;1999.90;999.90;;;;;;;;;;5056563;28;20234;-66
2024/01/12 06:06:35;;;;;;;1999.90;999.90;;;;;;;;;;5059045;28;20353;-66
2024/01/12 06:09:05;;;;;;;1999.90;999.90;;;;;;;;;;5056879;28;20225;-65
2024/01/12 06:11:32;;;;;;;1999.90;999.90;;;;;;;;;;5057741;28;20213;-66
2024/01/12 06:13:59;;;;;;;1999.90;999.90;;;;;;;;;;5055662;28;20595;-65
2024/01/12 06:16:27;;;;;;;1999.90;999.90;;;;;;;;;;5058380;28;20193;-65
2024/01/12 06:18:54;;;;;;;1999.90;999.90;;;;;;;;;;5059243;28;20210;-65
2024/01/12 06:21:21;;;;;;;1999.90;999.90;;;;;;;;;;5064034;28;20236;-67
2024/01/12 06:23:50;;;;;;;1999.90;999.90;;;;;;;;;;5067227;28;20216;-65
2024/01/12 06:26:17;;;;;;;1999.90;999.90;;;;;;;;;;5079649;28;20198;-65
2024/01/12 06:28:45;;;;;;;1999.90;999.90;;;;;;;;;;5061606;28;20220;-66
2024/01/12 06:31:12;;;;;;;1999.90;999.90;;;;;;;;;;5057612;28;20205;-65
2024/01/12 06:33:39;;;;;;;1999.90;999.90;;;;;;;;;;5061437;28;20230;-66
2024/01/12 06:36:07;;;;;;;1999.90;999.90;;;;;;;;;;5061953;28;20198;-65
2024/01/12 06:38:34;;;;;;;1999.90;999.90;;;;;;;;;;5050788;28;20206;-65
2024/01/12 06:41:04;;;;;;;1999.90;999.90;;;;;;;;;;5047256;28;20198;-66
2024/01/12 06:43:32;;;;;;;1999.90;999.90;;;;;;;;;;5049302;28;20209;-66
2024/01/12 06:45:59;;;;;;;1999.90;999.90;;;;;;;;;;5049500;28;20201;-66
2024/01/12 06:48:27;;;;;;;1999.90;999.90;;;;;;;;;;5060640;28;20236;-66
2024/01/12 06:50:54;;;;;;;1999.90;999.90;;;;;;;;;;5061767;28;20206;-66
2024/01/12 06:53:21;;;;;;;1999.90;999.90;;;;;;;;;;5060838;28;20209;-66
2024/01/12 06:55:49;;;;;;;1999.90;999.90;;;;;;;;;;5059943;28;20202;-66
2024/01/12 06:58:17;;;;;;;1999.90;999.90;;;;;;;;;;5062265;28;20742;-67
2024/01/12 07:00:45;;;;;;;1999.90;999.90;;;;;;;;;;5060133;28;20653;-66
2024/01/12 07:03:12;;;;;;;1999.90;999.90;;;;;;;;;;5059999;28;20198;-66
2024/01/12 07:05:39;;;;;;;1999.90;999.90;;;;;;;;;;5060810;28;20417;-67
2024/01/12 07:08:07;;;;;;;1999.90;999.90;;;;;;;;;;5063867;28;20215;-66
2024/01/12 07:10:34;;;;;;;1999.90;999.90;;;;;;;;;;5061063;28;20287;-65
2024/01/12 07:13:01;;;;;;;1999.90;999.90;;;;;;;;;;5062077;28;20721;-67
2024/01/12 07:15:30;;;;;;;1999.90;999.90;;;;;;;;;;5062002;28;20206;-66
2024/01/12 07:17:58;;;;;;;1999.90;999.90;;;;;;;;;;5061311;28;20194;-66
2024/01/12 07:20:25;;;;;;;1999.90;999.90;;;;;;;;;;5062660;28;20198;-66
2024/01/12 07:22:53;;;;;;;1999.90;999.90;;;;;;;;;;5060713;28;21002;-66
2024/01/12 07:25:21;;;;;;;1999.90;999.90;;;;;;;;;;5061130;28;20197;-66
2024/01/12 07:27:48;;;;;;;1999.90;999.90;;;;;;;;;;5060731;28;20209;-65
2024/01/12 07:30:16;;;;;;;1999.90;999.90;;;;;;;;;;5059595;28;20206;-66
2024/01/12 07:32:44;;;;;;;1999.90;999.90;;;;;;;;;;5061491;28;20199;-66
2024/01/12 07:35:12;;;;;;;1999.90;999.90;;;;;;;;;;5058973;28;20205;-65
2024/01/12 07:37:39;;;;;;;1999.90;999.90;;;;;;;;;;5061635;28;20289;-66
2024/01/12 07:40:07;;;;;;;1999.90;999.90;;;;;;;;;;5059561;28;20191;-66
2024/01/12 07:42:35;;;;;;;1999.90;999.90;;;;;;;;;;5061703;28;20233;-66
2024/01/12 07:45:02;;;;;;;1999.90;999.90;;;;;;;;;;5061579;28;20205;-65
2024/01/12 07:47:29;;;;;;;1999.90;999.90;;;;;;;;;;5060998;28;20574;-66
2024/01/12 07:50:00;;;;;;;1999.90;999.90;;;;;;;;;;5058299;28;20222;-66
2024/01/12 07:52:28;;;;;;;1999.90;999.90;;;;;;;;;;5061666;28;20288;-65
2024/01/12 07:54:55;;;;;;;1999.90;999.90;;;;;;;;;;5061409;28;20239;-65
2024/01/12 07:57:22;;;;;;;1999.90;999.90;;;;;;;;;;5058974;28;20206;-65
2024/01/12 07:59:50;;;;;;;1999.90;999.90;;;;;;;;;;5058918;28;20206;-64
2024/01/12 08:02:18;;;;;;;1999.90;999.90;;;;;;;;;;5062314;28;20198;-64
2024/01/12 08:04:45;;;;;;;1999.90;999.90;;;;;;;;;;5060029;28;20193;-65
2024/01/12 08:07:14;;;;;;;1999.90;999.90;;;;;;;;;;5061212;28;20205;-67
2024/01/12 08:09:41;;;;;;;1999.90;999.90;;;;;;;;;;5057903;28;20194;-65
2024/01/12 08:12:09;;;;;;;1999.90;999.90;;;;;;;;;;5060675;28;20207;-65
2024/01/12 08:14:36;;;;;;;1999.90;999.90;;;;;;;;;;5058997;28;20218;-65
2024/01/12 08:17:04;;;;;;;1999.90;999.90;;;;;;;;;;5060517;28;20197;-66
2024/01/12 08:19:31;;;;;;;1999.90;999.90;;;;;;;;;;5060285;28;20193;-65
2024/01/12 08:21:58;;;;;;;1999.90;999.90;;;;;;;;;;5058638;28;20225;-65
2024/01/12 08:24:27;;;;;;;1999.90;999.90;;;;;;;;;;5062462;28;20719;-65
2024/01/12 08:26:54;;;;;;;1999.90;999.90;;;;;;;;;;5059018;28;20252;-65
2024/01/12 08:29:22;;;;;;;1999.90;999.90;;;;;;;;;;5058113;28;20198;-65
2024/01/12 08:31:51;;;;;;;1999.90;999.90;;;;;;;;;;5057794;28;20203;-65
2024/01/12 08:34:18;;;;;;;1999.90;999.90;;;;;;;;;;5060664;28;20306;-65
2024/01/12 08:36:45;;;;;;;1999.90;999.90;;;;;;;;;;5056219;28;20556;-65
2024/01/12 08:39:13;;;;;;;1999.90;999.90;;;;;;;;;;5058610;28;20217;-64
2024/01/12 08:41:41;;;;;;;1999.90;999.90;;;;;;;;;;5060049;28;20209;-65
2024/01/12 08:44:09;;;;;;;1999.90;999.90;;;;;;;;;;5057637;28;20193;-65
2024/01/12 08:46:36;;;;;;;1999.90;999.90;;;;;;;;;;5060202;28;20273;-65
2024/01/12 08:49:03;;;;;;;1999.90;999.90;;;;;;;;;;5058106;28;21144;-65
2024/01/12 08:51:31;;;;;;;1999.90;999.90;;;;;;;;;;5058184;28;20694;-66
2024/01/12 08:53:58;;;;;;;1999.90;999.90;;;;;;;;;;5057176;28;20235;-65
2024/01/12 08:56:25;;;;;;;1999.90;999.90;;;;;;;;;;5057445;28;20213;-65
2024/01/12 08:58:54;;;;;;;1999.90;999.90;;;;;;;;;;5055944;28;21006;-65
2024/01/12 09:01:22;;;;;;;1999.90;999.90;;;;;;;;;;5057999;28;20209;-65
2024/01/12 09:03:49;;;;;;;1999.90;999.90;;;;;;;;;;5059522;28;20764;-66
2024/01/12 09:06:17;;;;;;;1999.90;999.90;;;;;;;;;;5059239;28;20202;-66
2024/01/12 09:08:44;;;;;;;1999.90;999.90;;;;;;;;;;5057347;28;20203;-65
2024/01/12 09:11:12;;;;;;;1999.90;999.90;;;;;;;;;;5056577;28;20658;-65
2024/01/12 09:13:40;;;;;;;1999.90;999.90;;;;;;;;;;5056222;28;20221;-65
2024/01/12 09:16:10;;;;;;;1999.90;999.90;;;;;;;;;;5058367;28;20489;-65
2024/01/12 09:18:38;;;;;;;1999.90;999.90;;;;;;;;;;5055597;28;20221;-65
2024/01/12 09:21:06;;;;;;;1999.90;999.90;;;;;;;;;;5057491;28;20201;-65
2024/01/12 09:23:33;;;;;;;1999.90;999.90;;;;;;;;;;5057440;28;20206;-66
2024/01/12 09:26:00;;;;;;;1999.90;999.90;;;;;;;;;;5056363;28;20203;-66
2024/01/12 09:28:28;;;;;;;1999.90;999.90;;;;;;;;;;5055882;28;20194;-65
2024/01/12 09:30:55;;;;;;;1999.90;999.90;;;;;;;;;;5058814;28;20212;-65
2024/01/12 09:33:24;;;;;;;1999.90;999.90;;;;;;;;;;5056077;28;20206;-65
2024/01/12 09:35:51;;;;;;;1999.90;999.90;;;;;;;;;;5057158;28;20209;-66
2024/01/12 09:38:18;;;;;;;1999.90;999.90;;;;;;;;;;5056707;28;20209;-64
2024/01/12 09:40:47;;;;;;;1999.90;999.90;;;;;;;;;;5057257;28;20195;-65
2024/01/12 09:43:15;;;;;;;1999.90;999.90;;;;;;;;;;5055976;28;20945;-65
2024/01/12 09:45:44;;;;;;;1999.90;999.90;;;;;;;;;;5057653;28;20589;-65
2024/01/12 09:48:11;;;;;;;1999.90;999.90;;;;;;;;;;5057905;28;20210;-65
2024/01/12 09:50:40;;;;;;;1999.90;999.90;;;;;;;;;;5055774;28;20556;-64
2024/01/12 09:53:08;;;;;;;1999.90;999.90;;;;;;;;;;5055210;28;20203;-65
2024/01/12 09:55:38;;;;;;;1999.90;999.90;;;;;;;;;;5055837;28;20219;-64
2024/01/12 09:58:07;;;;;;;1999.90;999.90;;;;;;;;;;5056207;28;20248;-65
2024/01/12 10:00:37;;;;;;;1999.90;999.90;;;;;;;;;;5056470;28;20207;-65
2024/01/12 10:03:05;;;;;;;1999.90;999.90;;;;;;;;;;5056282;28;20658;-64
2024/01/12 10:05:32;;;;;;;1999.90;999.90;;;;;;;;;;5056223;28;20206;-64
2024/01/12 10:08:01;;;;;;;1999.90;999.90;;;;;;;;;;5058482;28;20199;-65
2024/01/12 10:10:29;;;;;;;1999.90;999.90;;;;;;;;;;5054943;28;20202;-64
2024/01/12 10:12:56;;;;;;;1999.90;999.90;;;;;;;;;;5056876;28;20206;-64
2024/01/12 10:15:24;;;;;;;1999.90;999.90;;;;;;;;;;5061506;28;20238;-65
2024/01/12 10:17:52;;;;;;;1999.90;999.90;;;;;;;;;;5066156;28;20203;-65
2024/01/12 10:20:20;;;;;;;1999.90;999.90;;;;;;;;;;5058833;28;20274;-66
2024/01/12 10:22:55;;;;;;;1999.90;999.90;;;;;;;;;;5065355;28;20701;-66
2024/01/12 10:25:24;;;;;;;1999.90;999.90;;;;;;;;;;5063960;28;20206;-65
2024/01/12 10:27:57;;;;;;;1999.90;999.90;;;;;;;;;;5064701;28;20198;-67
2024/01/12 10:30:25;;;;;;;1999.90;999.90;;;;;;;;;;5057481;28;20569;-64
2024/01/12 10:32:52;;;;;;;1999.90;999.90;;;;;;;;;;5063411;28;20638;-65
2024/01/12 10:35:20;;;;;;;1999.90;999.90;;;;;;;;;;5063312;28;20546;-65
2024/01/12 10:37:48;;;;;;;1999.90;999.90;;;;;;;;;;5063165;28;20201;-65
2024/01/12 10:40:17;;;;;;;1999.90;999.90;;;;;;;;;;5062557;28;20292;-66
2024/01/12 10:42:48;;;;;;;1999.90;999.90;;;;;;;;;;5063427;28;20206;-65
2024/01/12 10:45:20;;;;;;;1999.90;999.90;;;;;;;;;;5064362;28;20559;-66
2024/01/12 10:47:49;;;;;;;1999.90;999.90;;;;;;;;;;5064260;28;20329;-66
2024/01/12 10:50:17;;;;;;;1999.90;999.90;;;;;;;;;;5063476;28;20199;-66
2024/01/12 10:52:48;;;;;;;1999.90;999.90;;;;;;;;;;5065083;28;20206;-66
2024/01/12 10:55:17;;;;;;;1999.90;999.90;;;;;;;;;;5063292;28;20240;-66
2024/01/12 10:57:46;;;;;;;1999.90;999.90;;;;;;;;;;5064835;28;20203;-66
2024/01/12 11:00:15;;;;;;;1999.90;999.90;;;;;;;;;;5059604;28;20195;-66
2024/01/12 11:02:43;;;;;;;1999.90;999.90;;;;;;;;;;5062451;28;20240;-65
2024/01/12 11:05:10;;;;;;;1999.90;999.90;;;;;;;;;;5065447;28;20654;-65
2024/01/12 11:07:41;;;;;;;1999.90;999.90;;;;;;;;;;5063780;28;20199;-65
2024/01/12 11:10:08;;;;;;;1999.90;999.90;;;;;;;;;;5066045;28;20199;-66
2024/01/12 11:12:38;;;;;;;1999.90;999.90;;;;;;;;;;5066791;28;20200;-65
2024/01/12 11:15:08;;;;;;;1999.90;999.90;;;;;;;;;;5068402;28;20577;-66
2024/01/12 11:17:38;;;;;;;1999.90;999.90;;;;;;;;;;5066781;28;20200;-66
2024/01/12 11:20:10;;;;;;;1999.90;999.90;;;;;;;;;;5067192;28;20210;-67
2024/01/12 11:22:37;;;;;;;1999.90;999.90;;;;;;;;;;5067302;28;20219;-66
2024/01/12 11:25:05;;;;;;;1999.90;999.90;;;;;;;;;;5067617;28;21192;-66
2024/01/12 11:27:33;;;;;;;1999.90;999.90;;;;;;;;;;5067569;28;20202;-66
2024/01/12 11:30:01;;;;;;;1999.90;999.90;;;;;;;;;;5066418;28;20213;-67
2024/01/12 11:32:30;;;;;;;1999.90;999.90;;;;;;;;;;5067852;28;20200;-66
2024/01/12 11:35:10;;;;;;;1999.90;999.90;;;;;;;;;;5065944;28;20230;-67
2024/01/12 11:37:38;;;;;;;1999.90;999.90;;;;;;;;;;5067259;28;20585;-67
2024/01/12 11:40:09;;;;;;;1999.90;999.90;;;;;;;;;;5067653;28;20191;-67
2024/01/12 11:42:37;;;;;;;1999.90;999.90;;;;;;;;;;5066741;28;20618;-67
2024/01/12 11:45:07;;;;;;;1999.90;999.90;;;;;;;;;;5067688;28;20191;-68
2024/01/12 11:47:36;;;;;;;1999.90;999.90;;;;;;;;;;5066294;28;20245;-67
2024/01/12 11:50:04;;;;;;;1999.90;999.90;;;;;;;;;;5067606;28;20297;-68
2024/01/12 11:52:32;;;;;;;1999.90;999.90;;;;;;;;;;5066720;28;20249;-67
2024/01/12 11:54:59;;;;;;;1999.90;999.90;;;;;;;;;;5066217;28;20215;-69
2024/01/12 11:57:26;;;;;;;1999.90;999.90;;;;;;;;;;5067564;28;20212;-68
2024/01/12 11:59:55;;;;;;;1999.90;999.90;;;;;;;;;;5066474;28;20202;-68
2024/01/12 12:02:22;;;;;;;1999.90;999.90;;;;;;;;;;5068346;28;20237;-68
2024/01/12 12:04:53;;;;;;;1999.90;999.90;;;;;;;;;;5067702;28;20217;-68
2024/01/12 12:07:24;;;;;;;1999.90;999.90;;;;;;;;;;5067744;28;20183;-68
2024/01/12 12:09:52;;;;;;;1999.90;999.90;;;;;;;;;;5067089;28;20280;-68
2024/01/12 12:12:19;;;;;;;1999.90;999.90;;;;;;;;;;5065859;28;20569;-69
2024/01/12 12:14:59;;;;;;;1999.90;999.90;;;;;;;;;;5080439;28;20227;-68
2024/01/12 12:17:28;;;;;;;1999.90;999.90;;;;;;;;;;5072358;28;20190;-69
2024/01/12 12:19:57;;;;;;;1999.90;999.90;;;;;;;;;;5067919;28;20200;-67
2024/01/12 12:22:25;;;;;;;1999.90;999.90;;;;;;;;;;5064472;28;20227;-68
2024/01/12 12:24:52;;;;;;;1999.90;999.90;;;;;;;;;;5059032;28;20206;-68
2024/01/12 12:27:21;;;;;;;1999.90;999.90;;;;;;;;;;5061141;28;20606;-69
2024/01/12 12:29:48;;;;;;;1999.90;999.90;;;;;;;;;;5061051;28;20199;-68
2024/01/12 12:32:16;;;;;;;1999.90;999.90;;;;;;;;;;5064840;28;20661;-69
2024/01/12 12:34:44;;;;;;;1999.90;999.90;;;;;;;;;;5059404;28;20723;-68
2024/01/12 12:37:14;;;;;;;1999.90;999.90;;;;;;;;;;5060436;28;20438;-68
2024/01/12 12:39:41;;;;;;;1999.90;999.90;;;;;;;;;;5058967;28;20187;-66
2024/01/12 12:42:10;;;;;;;1999.90;999.90;;;;;;;;;;5057821;28;20195;-66
2024/01/12 12:44:40;;;;;;;1999.90;999.90;;;;;;;;;;5058787;28;20876;-67
2024/01/12 12:47:07;;;;;;;1999.90;999.90;;;;;;;;;;5058819;28;20206;-68
2024/01/12 12:49:37;;;;;;;1999.90;999.90;;;;;;;;;;5061881;28;20230;-68
2024/01/12 12:52:04;;;;;;;1999.90;999.90;;;;;;;;;;5058745;28;20221;-68
2024/01/12 12:54:33;;;;;;;1999.90;999.90;;;;;;;;;;5060527;28;20210;-68
2024/01/12 12:57:01;;;;;;;1999.90;999.90;;;;;;;;;;5057686;28;20590;-68
2024/01/12 12:59:35;;;;;;;1999.90;999.90;;;;;;;;;;5058761;28;20264;-69
2024/01/12 13:02:02;;;;;;;1999.90;999.90;;;;;;;;;;5058185;28;20203;-68
2024/01/12 13:04:30;;;;;;;1999.90;999.90;;;;;;;;;;5059309;28;20215;-68
2024/01/12 13:06:58;;;;;;;1999.90;999.90;;;;;;;;;;5058362;28;20210;-68
2024/01/12 13:09:26;;;;;;;1999.90;999.90;;;;;;;;;;5058243;28;20194;-68
2024/01/12 13:11:54;;;;;;;1999.90;999.90;;;;;;;;;;5059703;28;20203;-66
2024/01/12 13:14:22;;;;;;;1999.90;999.90;;;;;;;;;;5059458;28;20199;-67
2024/01/12 13:16:50;;;;;;;1999.90;999.90;;;;;;;;;;5057198;28;20226;-68
2024/01/12 13:19:17;;;;;;;1999.90;999.90;;;;;;;;;;5067753;28;20205;-69
2024/01/12 13:21:45;;;;;;;1999.90;999.90;;;;;;;;;;5067612;28;20243;-72
2024/01/12 13:24:13;;;;;;;1999.90;999.90;;;;;;;;;;5071843;28;20191;-67
2024/01/12 13:26:40;;;;;;;1999.90;999.90;;;;;;;;;;5064337;28;20214;-66
2024/01/12 13:29:09;;;;;;;1999.90;999.90;;;;;;;;;;5063855;28;20282;-64
2024/01/12 13:31:36;;;;;;;1999.90;999.90;;;;;;;;;;5077674;28;20622;-62
2024/01/12 13:34:03;;;;;;;1999.90;999.90;;;;;;;;;;5068615;28;20641;-64
2024/01/12 13:36:31;;;;;;;1999.90;999.90;;;;;;;;;;5066031;28;20207;-66
2024/01/12 13:38:58;;;;;;;1999.90;999.90;;;;;;;;;;5062654;28;20200;-67
2024/01/12 13:41:25;;;;;;;1999.90;999.90;;;;;;;;;;5066022;28;20202;-67
2024/01/12 13:43:52;;;;;;;1999.90;999.90;;;;;;;;;;5064682;28;20228;-70
2024/01/12 13:46:21;;;;;;;1999.90;999.90;;;;;;;;;;5067320;28;20206;-66